Time;durP1;ratioP1;P1;durP2;ratioP2;P2;SDS_P1;SDS_P2;PMS_P1;PMS_P2;Temp;Humidity;BMP_temperature;BMP_pressure;BME280_temperature;BME280_humidity;BME280_pressure;Samples;Min_cycle;Max_cycle;Signal;HPM_P1;HPM_P2
2022/02/27 00:02:11;;;;;;;0.68;0.60;;;0.90;90.20;;;;;;5063151;28;20378;-74
2022/02/27 00:04:36;;;;;;;2.35;0.70;;;0.90;90.10;;;;;;5096640;28;20097;-73
2022/02/27 00:07:02;;;;;;;1.10;0.70;;;0.90;90.10;;;;;;5079602;28;20448;-73
2022/02/27 00:09:29;;;;;;;1.58;0.63;;;0.80;90.10;;;;;;5079750;28;20047;-74
2022/02/27 00:11:56;;;;;;;0.88;0.50;;;0.90;90.20;;;;;;5080188;28;20123;-73
2022/02/27 00:14:21;;;;;;;1.55;0.63;;;0.80;90.20;;;;;;5062980;28;20054;-74
2022/02/27 00:16:47;;;;;;;1.48;0.93;;;0.80;90.20;;;;;;5096638;28;20381;-74
2022/02/27 00:19:14;;;;;;;1.35;0.60;;;0.70;90.10;;;;;;5062733;28;20035;-74
2022/02/27 00:21:40;;;;;;;2.00;0.70;;;0.70;90.20;;;;;;5096158;28;20046;-74
2022/02/27 00:24:07;;;;;;;0.73;0.60;;;0.70;90.20;;;;;;5079394;28;20040;-74
2022/02/27 00:26:32;;;;;;;0.82;0.43;;;0.70;90.20;;;;;;5062590;28;20058;-74
2022/02/27 00:28:58;;;;;;;0.60;0.43;;;0.70;90.10;;;;;;5096256;28;20039;-74
2022/02/27 00:31:24;;;;;;;0.73;0.50;;;0.70;90.20;;;;;;5096373;28;20046;-74
2022/02/27 00:33:50;;;;;;;0.82;0.70;;;0.70;90.20;;;;;;5096767;28;20068;-74
2022/02/27 00:36:16;;;;;;;0.40;0.38;;;0.70;90.20;;;;;;5096123;28;20055;-74
2022/02/27 00:38:42;;;;;;;0.70;0.32;;;0.70;90.20;;;;;;5079638;28;20043;-74
2022/02/27 00:41:08;;;;;;;0.40;0.40;;;0.60;90.20;;;;;;5096505;28;20070;-74
2022/02/27 00:43:34;;;;;;;0.93;0.50;;;0.60;90.20;;;;;;5079078;28;20039;-74
2022/02/27 00:46:01;;;;;;;1.75;0.60;;;0.60;90.20;;;;;;5095763;28;20031;-74
2022/02/27 00:48:26;;;;;;;1.40;0.70;;;0.60;90.20;;;;;;5062356;28;20453;-75
2022/02/27 00:50:52;;;;;;;1.80;0.60;;;0.60;90.20;;;;;;5078599;28;20042;-74
2022/02/27 00:53:18;;;;;;;0.95;0.60;;;0.60;90.20;;;;;;5095952;28;20031;-73
2022/02/27 00:55:44;;;;;;;0.88;0.60;;;0.70;90.20;;;;;;5113978;28;20123;-73
2022/02/27 00:58:09;;;;;;;0.80;0.50;;;0.60;90.20;;;;;;5078593;28;20489;-74
2022/02/27 01:00:35;;;;;;;0.82;0.50;;;0.60;90.20;;;;;;5078631;28;20046;-73
2022/02/27 01:03:00;;;;;;;1.30;0.35;;;0.60;90.10;;;;;;5095876;28;20515;-74
2022/02/27 01:05:26;;;;;;;1.13;0.55;;;0.50;90.10;;;;;;5095652;28;20047;-74
2022/02/27 01:07:52;;;;;;;1.80;0.73;;;0.60;90.10;;;;;;5113559;28;20048;-74
2022/02/27 01:10:18;;;;;;;0.40;0.30;;;0.60;90.00;;;;;;5061850;28;20035;-74
2022/02/27 01:12:43;;;;;;;0.93;0.60;;;0.70;90.00;;;;;;5078280;28;20035;-73
2022/02/27 01:15:10;;;;;;;1.00;0.57;;;0.60;90.00;;;;;;5078424;28;20043;-73
2022/02/27 01:17:35;;;;;;;1.23;0.47;;;0.60;90.00;;;;;;5078212;28;20039;-74
2022/02/27 01:20:05;;;;;;;0.20;0.20;;;0.50;90.00;;;;;;5095149;28;20458;-73
2022/02/27 01:22:32;;;;;;;0.75;0.40;;;0.50;90.10;;;;;;5061761;28;20408;-74
2022/02/27 01:24:58;;;;;;;0.70;0.40;;;0.50;90.00;;;;;;5078533;28;20122;-74
2022/02/27 01:27:23;;;;;;;1.13;0.60;;;0.50;90.10;;;;;;5095283;28;20139;-74
2022/02/27 01:29:49;;;;;;;0.32;0.32;;;0.50;90.10;;;;;;5061962;28;20542;-74
2022/02/27 01:32:15;;;;;;;0.40;0.40;;;0.40;90.10;;;;;;5095023;28;20039;-74
2022/02/27 01:34:40;;;;;;;0.50;0.32;;;0.50;90.10;;;;;;5078321;28;20035;-74
2022/02/27 01:37:06;;;;;;;0.57;0.40;;;0.50;90.10;;;;;;5078143;28;20046;-73
2022/02/27 01:39:32;;;;;;;1.33;0.50;;;0.50;90.00;;;;;;5061443;28;20058;-75
2022/02/27 01:41:58;;;;;;;0.40;0.35;;;0.50;90.10;;;;;;5113397;28;20534;-74
2022/02/27 01:44:24;;;;;;;0.88;0.45;;;0.50;90.10;;;;;;5113704;28;20046;-78
2022/02/27 01:46:59;;;;;;;1.33;0.45;;;0.40;90.00;;;;;;5060963;28;20051;-72
2022/02/27 01:49:25;;;;;;;0.85;0.40;;;0.40;90.10;;;;;;5094938;28;20078;-73
2022/02/27 01:51:50;;;;;;;0.43;0.30;;;0.40;90.40;;;;;;5113635;28;20055;-73
2022/02/27 01:54:16;;;;;;;1.23;0.50;;;0.40;90.10;;;;;;5095085;28;20071;-73
2022/02/27 01:56:43;;;;;;;1.10;0.50;;;0.40;90.10;;;;;;5113178;28;20043;-72
2022/02/27 01:59:10;;;;;;;0.57;0.40;;;0.40;90.10;;;;;;5092798;28;20052;-72
2022/02/27 02:01:35;;;;;;;0.40;0.35;;;0.40;90.10;;;;;;5095065;28;20036;-72
2022/02/27 02:04:01;;;;;;;1.33;0.40;;;0.40;90.10;;;;;;5078178;28;20044;-73
2022/02/27 02:06:27;;;;;;;0.88;0.35;;;0.40;90.10;;;;;;5094800;28;20382;-73
2022/02/27 02:08:52;;;;;;;0.57;0.45;;;0.40;90.10;;;;;;5095227;28;20036;-73
2022/02/27 02:11:18;;;;;;;0.70;0.40;;;0.30;90.00;;;;;;5094759;28;20044;-73
2022/02/27 02:13:44;;;;;;;0.40;0.30;;;0.30;90.10;;;;;;5094621;28;20109;-72
2022/02/27 02:16:10;;;;;;;0.93;0.30;;;0.40;90.10;;;;;;5094891;28;20035;-72
2022/02/27 02:18:39;;;;;;;0.65;0.35;;;0.30;90.10;;;;;;5095053;28;20046;-73
2022/02/27 02:21:06;;;;;;;2.55;0.68;;;0.30;90.10;;;;;;5112818;28;20036;-73
2022/02/27 02:23:32;;;;;;;0.30;0.20;;;0.30;90.10;;;;;;5094561;28;20040;-73
2022/02/27 02:25:59;;;;;;;0.82;0.40;;;0.40;90.10;;;;;;5112726;28;20541;-73
2022/02/27 02:28:25;;;;;;;0.40;0.40;;;0.40;90.10;;;;;;5094771;28;20043;-72
2022/02/27 02:30:51;;;;;;;0.70;0.43;;;0.40;90.10;;;;;;5112762;28;20043;-73
2022/02/27 02:33:16;;;;;;;0.70;0.30;;;0.30;90.10;;;;;;5094407;28;20497;-72
2022/02/27 02:35:44;;;;;;;0.90;0.43;;;0.40;90.30;;;;;;5113001;28;20416;-73
2022/02/27 02:38:10;;;;;;;1.02;0.38;;;0.30;90.00;;;;;;5094676;28;20118;-73
2022/02/27 02:40:36;;;;;;;1.05;0.43;;;0.30;90.00;;;;;;5112827;28;20119;-73
2022/02/27 02:43:02;;;;;;;0.30;0.30;;;0.40;90.00;;;;;;5111932;28;20040;-73
2022/02/27 02:45:28;;;;;;;0.45;0.40;;;0.30;90.00;;;;;;5111789;28;20504;-73
2022/02/27 02:47:55;;;;;;;0.40;0.20;;;0.30;90.00;;;;;;5112291;28;20052;-73
2022/02/27 02:50:22;;;;;;;0.90;0.32;;;0.30;90.00;;;;;;5112263;28;20126;-73
2022/02/27 02:52:48;;;;;;;1.13;0.40;;;0.30;90.00;;;;;;5112293;28;20131;-72
2022/02/27 02:55:18;;;;;;;0.85;0.30;;;0.30;90.10;;;;;;5094368;28;20046;-72
2022/02/27 02:57:44;;;;;;;0.70;0.30;;;0.30;90.10;;;;;;5093988;28;20497;-73
2022/02/27 03:00:12;;;;;;;0.73;0.30;;;0.20;90.00;;;;;;5112357;28;20100;-74
2022/02/27 03:02:38;;;;;;;1.15;0.50;;;0.30;90.10;;;;;;5112198;28;20066;-73
2022/02/27 03:05:06;;;;;;;0.32;0.22;;;0.20;90.00;;;;;;5112464;28;20035;-73
2022/02/27 03:07:35;;;;;;;0.20;0.20;;;0.30;90.00;;;;;;5112531;28;20134;-73
2022/02/27 03:10:01;;;;;;;0.57;0.40;;;0.30;90.00;;;;;;5112440;28;20043;-73
2022/02/27 03:12:26;;;;;;;0.45;0.38;;;0.30;90.00;;;;;;5112426;28;20059;-72
2022/02/27 03:14:52;;;;;;;0.88;0.30;;;0.30;90.00;;;;;;5094106;28;20040;-73
2022/02/27 03:17:18;;;;;;;0.10;0.10;;;0.30;90.00;;;;;;5112115;28;20382;-72
2022/02/27 03:19:44;;;;;;;0.30;0.30;;;0.30;90.00;;;;;;5112025;28;20035;-72
2022/02/27 03:22:10;;;;;;;0.77;0.60;;;0.30;90.00;;;;;;5112107;28;20118;-72
2022/02/27 03:24:35;;;;;;;1.15;0.45;;;0.20;90.00;;;;;;5076817;28;20066;-73
2022/02/27 03:27:01;;;;;;;0.65;0.35;;;0.20;90.00;;;;;;5111735;28;20040;-72
2022/02/27 03:29:27;;;;;;;0.73;0.30;;;0.20;90.00;;;;;;5093549;28;20073;-72
2022/02/27 03:31:54;;;;;;;0.50;0.40;;;0.20;90.10;;;;;;5093564;28;20485;-73
2022/02/27 03:34:20;;;;;;;1.50;0.30;;;0.20;90.10;;;;;;5110329;28;20039;-73
2022/02/27 03:36:45;;;;;;;0.95;0.40;;;0.20;90.10;;;;;;5112257;28;20043;-73
2022/02/27 03:39:11;;;;;;;0.95;0.30;;;0.20;90.10;;;;;;5112228;28;20505;-73
2022/02/27 03:41:37;;;;;;;0.90;0.50;;;0.20;90.10;;;;;;5093852;28;20418;-73
2022/02/27 03:44:03;;;;;;;0.30;0.22;;;0.20;90.10;;;;;;5093993;28;20040;-73
2022/02/27 03:46:34;;;;;;;1.45;0.43;;;0.20;90.00;;;;;;5111984;28;20110;-73
2022/02/27 03:49:02;;;;;;;0.50;0.30;;;0.20;90.10;;;;;;5093329;28;20674;-73
2022/02/27 03:51:28;;;;;;;0.40;0.30;;;0.20;90.10;;;;;;5093559;28;20093;-73
2022/02/27 03:53:54;;;;;;;0.28;0.28;;;0.20;90.10;;;;;;5093374;28;20346;-73
2022/02/27 03:56:20;;;;;;;0.13;0.13;;;0.20;90.10;;;;;;5096161;28;20032;-72
2022/02/27 03:58:45;;;;;;;0.82;0.40;;;0.20;90.10;;;;;;5115363;28;20059;-72
2022/02/27 04:01:14;;;;;;;0.73;0.28;;;0.20;90.10;;;;;;5115546;28;20085;-72
2022/02/27 04:03:40;;;;;;;0.40;0.28;;;0.20;90.00;;;;;;5096700;28;20089;-72
2022/02/27 04:06:06;;;;;;;0.80;0.50;;;0.30;90.00;;;;;;5096607;28;20027;-72
2022/02/27 04:08:32;;;;;;;1.20;0.50;;;0.20;90.00;;;;;;5096677;28;20044;-72
2022/02/27 04:10:57;;;;;;;0.80;0.40;;;0.30;90.00;;;;;;5115014;28;20114;-72
2022/02/27 04:13:24;;;;;;;0.50;0.40;;;0.30;90.00;;;;;;5096494;28;20480;-72
2022/02/27 04:15:49;;;;;;;0.85;0.45;;;0.40;90.00;;;;;;5115230;28;20036;-72
2022/02/27 04:18:16;;;;;;;0.20;0.20;;;0.40;90.00;;;;;;5114550;28;20089;-72
2022/02/27 04:20:42;;;;;;;0.50;0.50;;;0.40;90.00;;;;;;5115092;28;20043;-72
2022/02/27 04:23:07;;;;;;;1.00;0.45;;;0.40;89.90;;;;;;5114615;28;20066;-73
2022/02/27 04:25:33;;;;;;;0.50;0.20;;;0.40;89.90;;;;;;5114480;28;20044;-73
2022/02/27 04:27:59;;;;;;;0.82;0.40;;;0.30;89.80;;;;;;5096213;28;20051;-73
2022/02/27 04:30:25;;;;;;;0.73;0.40;;;0.40;89.90;;;;;;5096530;28;20035;-72
2022/02/27 04:32:50;;;;;;;0.75;0.45;;;0.40;90.00;;;;;;5096325;28;20036;-73
2022/02/27 04:35:16;;;;;;;0.80;0.40;;;0.40;89.90;;;;;;5096100;28;20039;-73
2022/02/27 04:37:42;;;;;;;0.70;0.30;;;0.40;89.90;;;;;;5079341;28;20089;-72
2022/02/27 04:40:08;;;;;;;0.63;0.25;;;0.30;89.90;;;;;;5115068;28;20084;-72
2022/02/27 04:42:34;;;;;;;0.35;0.20;;;0.30;89.90;;;;;;5114951;28;20482;-72
2022/02/27 04:45:00;;;;;;;0.55;0.20;;;0.40;90.00;;;;;;5115052;28;20538;-72
2022/02/27 04:47:26;;;;;;;0.13;0.13;;;0.30;90.00;;;;;;5096133;28;20048;-72
2022/02/27 04:49:52;;;;;;;0.52;0.35;;;0.30;90.00;;;;;;5114629;28;20127;-73
2022/02/27 04:52:18;;;;;;;0.40;0.40;;;0.30;90.00;;;;;;5095867;28;20088;-72
2022/02/27 04:54:44;;;;;;;0.80;0.28;;;0.30;90.00;;;;;;5114337;28;20031;-72
2022/02/27 04:57:10;;;;;;;0.70;0.45;;;0.40;90.00;;;;;;5114069;28;20032;-72
2022/02/27 04:59:37;;;;;;;0.68;0.30;;;0.30;90.00;;;;;;5114006;28;20397;-73
2022/02/27 05:02:03;;;;;;;0.85;0.30;;;0.30;90.00;;;;;;5096238;28;20035;-73
2022/02/27 05:04:28;;;;;;;0.30;0.30;;;0.30;90.00;;;;;;5114159;28;20035;-73
2022/02/27 05:06:54;;;;;;;0.45;0.45;;;0.20;90.00;;;;;;5113146;28;20467;-73
2022/02/27 05:09:20;;;;;;;0.45;0.35;;;0.20;90.00;;;;;;5114200;28;20042;-73
2022/02/27 05:11:48;;;;;;;0.52;0.50;;;0.20;90.00;;;;;;5114562;28;20483;-73
2022/02/27 05:14:14;;;;;;;1.08;0.30;;;0.20;90.00;;;;;;5114722;28;20047;-73
2022/02/27 05:16:41;;;;;;;0.95;0.50;;;0.30;90.10;;;;;;5114091;28;20043;-72
2022/02/27 05:19:08;;;;;;;0.60;0.57;;;0.20;90.10;;;;;;5114514;28;20068;-73
2022/02/27 05:21:34;;;;;;;1.58;0.30;;;0.10;90.00;;;;;;5114563;28;20152;-72
2022/02/27 05:24:00;;;;;;;0.73;0.40;;;0.20;90.10;;;;;;5114339;28;20043;-72
2022/02/27 05:26:27;;;;;;;0.20;0.20;;;0.20;90.10;;;;;;5114475;28;20181;-72
2022/02/27 05:28:53;;;;;;;0.73;0.20;;;0.10;90.10;;;;;;5114467;28;20556;-72
2022/02/27 05:31:18;;;;;;;1.13;0.45;;;0.20;90.10;;;;;;5095843;28;20067;-73
2022/02/27 05:33:44;;;;;;;1.85;0.50;;;0.10;90.10;;;;;;5114323;28;20457;-73
2022/02/27 05:36:10;;;;;;;0.52;0.30;;;0.10;90.10;;;;;;5113856;28;20036;-73
2022/02/27 05:38:36;;;;;;;0.52;0.32;;;0.10;90.10;;;;;;5114615;28;20373;-73
2022/02/27 05:41:02;;;;;;;0.50;0.30;;;0.10;90.10;;;;;;5113921;28;20131;-72
2022/02/27 05:43:28;;;;;;;1.05;0.30;;;0.00;90.10;;;;;;5113485;28;20050;-72
2022/02/27 05:45:54;;;;;;;0.43;0.30;;;0.00;90.10;;;;;;5095394;28;20048;-73
2022/02/27 05:48:20;;;;;;;1.13;0.50;;;0.00;90.20;;;;;;5113288;28;20086;-73
2022/02/27 05:50:46;;;;;;;0.93;0.55;;;0.00;90.20;;;;;;5095048;28;20074;-73
2022/02/27 05:53:11;;;;;;;0.38;0.35;;;0.00;90.20;;;;;;5095069;28;20048;-72
2022/02/27 05:55:37;;;;;;;0.68;0.30;;;0.00;90.20;;;;;;5095410;28;20445;-73
2022/02/27 05:58:03;;;;;;;2.13;0.40;;;0.00;90.20;;;;;;5113496;28;20047;-73
2022/02/27 06:00:29;;;;;;;0.63;0.50;;;0.00;90.20;;;;;;5078297;28;20065;-73
2022/02/27 06:02:55;;;;;;;1.17;0.22;;;0.00;90.20;;;;;;5113711;28;20046;-73
2022/02/27 06:05:21;;;;;;;3.03;0.50;;;0.00;90.20;;;;;;5078059;28;20050;-73
2022/02/27 06:07:47;;;;;;;1.35;0.30;;;0.00;90.20;;;;;;5061364;28;20126;-73
2022/02/27 06:10:12;;;;;;;0.88;0.40;;;-0.10;90.10;;;;;;5113181;28;20039;-74
2022/02/27 06:12:45;;;;;;;0.80;0.35;;;-0.10;90.20;;;;;;5095096;28;20044;-73
2022/02/27 06:15:10;;;;;;;0.82;0.40;;;0.00;90.20;;;;;;5113237;28;20039;-73
2022/02/27 06:17:36;;;;;;;0.57;0.38;;;-0.10;90.20;;;;;;5113114;28;20488;-73
2022/02/27 06:20:02;;;;;;;0.75;0.45;;;-0.10;90.20;;;;;;5077966;28;20039;-73
2022/02/27 06:22:28;;;;;;;0.50;0.45;;;-0.10;90.20;;;;;;5113505;28;20054;-72
2022/02/27 06:24:54;;;;;;;0.80;0.38;;;-0.10;90.20;;;;;;5113066;28;20396;-73
2022/02/27 06:27:19;;;;;;;0.47;0.25;;;-0.10;90.20;;;;;;5094741;28;20044;-72
2022/02/27 06:29:45;;;;;;;0.50;0.30;;;-0.10;90.20;;;;;;5113413;28;20443;-72
2022/02/27 06:32:11;;;;;;;0.55;0.40;;;-0.10;90.20;;;;;;5112877;28;20397;-72
2022/02/27 06:34:36;;;;;;;1.13;0.32;;;-0.10;90.20;;;;;;5092679;28;20043;-73
2022/02/27 06:37:02;;;;;;;1.20;0.40;;;-0.10;90.20;;;;;;5094585;28;20497;-74
2022/02/27 06:39:28;;;;;;;0.35;0.30;;;0.00;90.20;;;;;;5094827;28;20071;-73
2022/02/27 06:41:54;;;;;;;0.20;0.20;;;-0.20;90.20;;;;;;5113310;28;20047;-74
2022/02/27 06:44:20;;;;;;;0.30;0.15;;;-0.20;90.20;;;;;;5112979;28;20047;-73
2022/02/27 06:46:45;;;;;;;0.82;0.30;;;-0.20;90.20;;;;;;5112673;28;20040;-73
2022/02/27 06:49:11;;;;;;;0.50;0.35;;;-0.20;90.20;;;;;;5112607;28;20044;-73
2022/02/27 06:51:37;;;;;;;0.20;0.20;;;-0.20;90.20;;;;;;5112707;28;20119;-72
2022/02/27 06:54:03;;;;;;;0.98;0.30;;;-0.20;90.20;;;;;;5077632;28;20074;-73
2022/02/27 06:56:29;;;;;;;0.75;0.30;;;-0.30;90.20;;;;;;5078286;28;20043;-73
2022/02/27 06:58:55;;;;;;;0.22;0.20;;;-0.20;90.20;;;;;;5094550;28;20040;-74
2022/02/27 07:01:21;;;;;;;0.47;0.20;;;-0.20;90.20;;;;;;5113049;28;20039;-73
2022/02/27 07:03:46;;;;;;;0.98;0.30;;;-0.10;90.20;;;;;;5112933;28;20051;-74
2022/02/27 07:06:12;;;;;;;1.50;0.40;;;-0.10;90.20;;;;;;5112421;28;20036;-72
2022/02/27 07:08:37;;;;;;;0.20;0.20;;;0.00;90.20;;;;;;5112544;28;20047;-73
2022/02/27 07:11:03;;;;;;;0.20;0.20;;;0.00;90.20;;;;;;5094170;28;20047;-74
2022/02/27 07:13:30;;;;;;;0.60;0.30;;;0.00;90.10;;;;;;5112719;28;20043;-73
2022/02/27 07:15:56;;;;;;;0.30;0.30;;;0.00;90.10;;;;;;5112307;28;20044;-73
2022/02/27 07:18:22;;;;;;;0.57;0.38;;;0.10;90.10;;;;;;5112602;28;20058;-73
2022/02/27 07:20:47;;;;;;;0.45;0.20;;;0.10;90.10;;;;;;5112173;28;20393;-72
2022/02/27 07:23:13;;;;;;;0.35;0.20;;;0.10;90.00;;;;;;5112165;28;20031;-73
2022/02/27 07:25:39;;;;;;;0.60;0.20;;;0.20;90.00;;;;;;5112666;28;20122;-73
2022/02/27 07:28:05;;;;;;;0.30;0.22;;;0.20;90.00;;;;;;5111894;28;20079;-72
2022/02/27 07:30:31;;;;;;;0.10;0.10;;;0.30;90.00;;;;;;5113816;28;20059;-73
2022/02/27 07:32:57;;;;;;;0.47;0.22;;;0.30;90.00;;;;;;5116267;28;20082;-72
2022/02/27 07:35:23;;;;;;;0.40;0.30;;;0.40;90.00;;;;;;5115731;28;20460;-73
2022/02/27 07:37:48;;;;;;;1.08;0.47;;;0.40;89.90;;;;;;5063843;28;20063;-72
2022/02/27 07:40:14;;;;;;;0.32;0.30;;;0.50;89.70;;;;;;5115693;28;20058;-73
2022/02/27 07:42:40;;;;;;;0.95;0.40;;;0.60;89.60;;;;;;5115370;28;20089;-71
2022/02/27 07:45:06;;;;;;;0.60;0.30;;;0.70;89.40;;;;;;5097540;28;20044;-73
2022/02/27 07:47:32;;;;;;;0.50;0.20;;;0.80;89.40;;;;;;5097673;28;20043;-72
2022/02/27 07:49:58;;;;;;;0.52;0.43;;;0.90;89.30;;;;;;5115532;28;20046;-73
2022/02/27 07:52:23;;;;;;;0.25;0.25;;;1.00;89.10;;;;;;5063713;28;20028;-73
2022/02/27 07:54:49;;;;;;;0.77;0.40;;;1.10;89.00;;;;;;5063647;28;20035;-73
2022/02/27 07:57:15;;;;;;;1.35;0.30;;;1.20;89.00;;;;;;5116019;28;20496;-72
2022/02/27 07:59:44;;;;;;;0.30;0.30;;;1.30;88.90;;;;;;5115388;28;20132;-72
2022/02/27 08:02:10;;;;;;;0.50;0.50;;;1.40;88.70;;;;;;5097083;28;20035;-73
2022/02/27 08:04:35;;;;;;;0.90;0.50;;;1.50;88.60;;;;;;5080118;28;20051;-73
2022/02/27 08:07:03;;;;;;;0.60;0.40;;;1.60;88.40;;;;;;5096783;28;20040;-74
2022/02/27 08:09:29;;;;;;;0.40;0.30;;;1.70;88.30;;;;;;5115243;28;20050;-73
2022/02/27 08:11:54;;;;;;;0.70;0.40;;;1.80;88.10;;;;;;5115004;28;20056;-73
2022/02/27 08:14:20;;;;;;;1.40;0.57;;;2.00;88.10;;;;;;5115007;28;20118;-73
2022/02/27 08:16:46;;;;;;;1.15;0.63;;;2.00;88.00;;;;;;5096651;28;20493;-73
2022/02/27 08:19:11;;;;;;;0.85;0.47;;;2.10;87.90;;;;;;5114862;28;20043;-73
2022/02/27 08:21:38;;;;;;;1.17;0.57;;;2.20;87.80;;;;;;5115013;28;20031;-73
2022/02/27 08:24:07;;;;;;;0.93;0.55;;;2.30;87.70;;;;;;5115501;28;20055;-73
2022/02/27 08:26:32;;;;;;;0.70;0.32;;;2.40;87.60;;;;;;5096519;28;20044;-74
2022/02/27 08:28:59;;;;;;;0.52;0.52;;;2.50;87.50;;;;;;5114814;28;21280;-74
2022/02/27 08:31:24;;;;;;;0.93;0.60;;;2.60;87.40;;;;;;5115271;28;20036;-73
2022/02/27 08:33:50;;;;;;;0.52;0.50;;;2.70;87.30;;;;;;5096598;28;20176;-73
2022/02/27 08:36:17;;;;;;;0.50;0.47;;;2.80;87.20;;;;;;5096645;28;20069;-73
2022/02/27 08:38:43;;;;;;;1.20;0.57;;;2.90;87.20;;;;;;5114726;28;20047;-74
2022/02/27 08:41:09;;;;;;;0.68;0.32;;;3.00;87.10;;;;;;5096581;28;20032;-74
2022/02/27 08:43:35;;;;;;;0.57;0.30;;;3.10;87.00;;;;;;5115175;28;20032;-74
2022/02/27 08:46:01;;;;;;;0.52;0.50;;;3.20;86.90;;;;;;5114871;28;20051;-74
2022/02/27 08:48:28;;;;;;;1.13;0.75;;;3.30;86.80;;;;;;5114404;28;20046;-73
2022/02/27 08:50:54;;;;;;;0.85;0.70;;;3.40;86.70;;;;;;5114569;28;20040;-74
2022/02/27 08:53:20;;;;;;;0.70;0.57;;;3.50;86.60;;;;;;5114452;28;20042;-74
2022/02/27 08:55:46;;;;;;;1.23;0.75;;;3.60;86.50;;;;;;5114242;28;20040;-74
2022/02/27 08:58:12;;;;;;;1.40;0.70;;;3.60;86.40;;;;;;5095923;28;20127;-74
2022/02/27 09:00:38;;;;;;;1.33;0.73;;;3.70;86.40;;;;;;5079284;28;20444;-74
2022/02/27 09:03:04;;;;;;;0.90;0.57;;;3.80;86.30;;;;;;5096140;28;20067;-74
2022/02/27 09:05:30;;;;;;;0.57;0.40;;;3.80;86.20;;;;;;5096265;28;20064;-74
2022/02/27 09:07:56;;;;;;;2.35;0.70;;;3.80;86.10;;;;;;5114163;28;20513;-74
2022/02/27 09:10:22;;;;;;;1.13;0.55;;;3.90;86.00;;;;;;5095852;28;20043;-74
2022/02/27 09:12:48;;;;;;;2.10;0.80;;;4.00;86.00;;;;;;5096599;28;20127;-74
2022/02/27 09:15:15;;;;;;;1.10;0.50;;;4.10;86.00;;;;;;5078987;28;20335;-74
2022/02/27 09:17:40;;;;;;;1.52;0.70;;;4.10;85.90;;;;;;5114438;28;20079;-74
2022/02/27 09:20:08;;;;;;;2.03;0.75;;;4.20;85.80;;;;;;5114477;28;20129;-74
2022/02/27 09:22:34;;;;;;;2.90;0.80;;;4.30;85.70;;;;;;5114410;28;20189;-75
2022/02/27 09:25:00;;;;;;;1.52;0.90;;;4.30;85.60;;;;;;5096264;28;20035;-74
2022/02/27 09:27:25;;;;;;;1.33;0.90;;;4.40;85.50;;;;;;5079176;28;20050;-75
2022/02/27 09:29:51;;;;;;;2.42;0.90;;;4.50;85.40;;;;;;5114034;28;20123;-74
2022/02/27 09:32:17;;;;;;;1.00;0.88;;;4.50;85.30;;;;;;5113813;28;20089;-73
2022/02/27 09:34:42;;;;;;;0.90;0.70;;;4.60;85.20;;;;;;5113897;28;20396;-74
2022/02/27 09:37:08;;;;;;;1.42;0.90;;;4.70;85.10;;;;;;5095462;28;20386;-74
2022/02/27 09:39:36;;;;;;;1.95;0.88;;;4.70;85.00;;;;;;5095467;28;20057;-74
2022/02/27 09:42:02;;;;;;;1.58;0.90;;;4.80;84.90;;;;;;5062475;28;20353;-73
2022/02/27 09:44:36;;;;;;;1.50;0.80;;;4.80;84.80;;;;;;5095895;28;20040;-74
2022/02/27 09:47:02;;;;;;;1.52;0.70;;;4.90;84.70;;;;;;5112284;28;20047;-75
2022/02/27 09:49:29;;;;;;;1.45;0.82;;;5.00;84.70;;;;;;5113659;28;20065;-76
2022/02/27 09:51:55;;;;;;;1.55;1.00;;;5.00;84.50;;;;;;5095667;28;20122;-75
2022/02/27 09:54:21;;;;;;;1.25;0.88;;;5.10;84.50;;;;;;5113321;28;20497;-75
2022/02/27 09:56:49;;;;;;;0.93;0.70;;;5.20;84.40;;;;;;5113338;28;20096;-74
2022/02/27 09:59:15;;;;;;;0.85;0.70;;;5.20;84.30;;;;;;5113492;28;20049;-75
2022/02/27 10:01:58;;;;;;;0.82;0.57;;;5.30;84.20;;;;;;5095024;28;20039;-76
2022/02/27 10:04:25;;;;;;;1.38;0.65;;;5.40;84.10;;;;;;5078140;28;20051;-77
2022/02/27 10:06:51;;;;;;;1.77;0.73;;;5.50;84.10;;;;;;5094812;28;20530;-75
2022/02/27 10:09:24;;;;;;;1.23;0.70;;;5.40;83.90;;;;;;5094983;28;20039;-74
2022/02/27 10:11:52;;;;;;;1.27;0.70;;;5.50;83.80;;;;;;5113585;28;20042;-73
2022/02/27 10:14:27;;;;;;;0.98;0.60;;;5.50;83.70;;;;;;5095020;28;20027;-73
2022/02/27 10:17:08;;;;;;;1.20;0.70;;;5.50;83.60;;;;;;5112887;28;20043;-73
2022/02/27 10:19:39;;;;;;;0.80;0.50;;;5.60;83.70;;;;;;5095098;28;20046;-73
2022/02/27 10:22:08;;;;;;;1.92;0.88;;;5.60;83.60;;;;;;5113085;28;20531;-73
2022/02/27 10:24:35;;;;;;;0.57;0.47;;;5.70;83.50;;;;;;5112997;28;20062;-73
2022/02/27 10:27:09;;;;;;;1.00;0.60;;;5.70;83.40;;;;;;5095397;28;20043;-73
2022/02/27 10:29:36;;;;;;;1.00;0.70;;;5.70;83.20;;;;;;5113389;28;20044;-73
2022/02/27 10:32:04;;;;;;;1.02;0.65;;;5.80;83.20;;;;;;5112930;28;20027;-73
2022/02/27 10:34:33;;;;;;;0.93;0.70;;;5.80;83.10;;;;;;5095297;28;20035;-73
2022/02/27 10:37:05;;;;;;;2.53;0.75;;;5.80;83.10;;;;;;5112671;28;20054;-72
2022/02/27 10:39:48;;;;;;;2.08;0.80;;;5.80;83.00;;;;;;5112988;28;20067;-72
2022/02/27 10:42:26;;;;;;;1.67;0.93;;;5.90;82.90;;;;;;5095005;28;20110;-73
2022/02/27 10:44:56;;;;;;;0.52;0.50;;;6.00;82.90;;;;;;5111956;28;20044;-73
2022/02/27 10:47:26;;;;;;;2.28;0.80;;;6.00;82.80;;;;;;5094322;28;20040;-73
2022/02/27 10:49:54;;;;;;;1.17;0.63;;;6.10;82.80;;;;;;5093721;28;20050;-73
2022/02/27 10:52:26;;;;;;;1.70;0.77;;;6.10;82.60;;;;;;5110919;28;20032;-73
2022/02/27 10:54:54;;;;;;;1.08;0.80;;;6.20;82.50;;;;;;5111010;28;20035;-74
2022/02/27 10:57:35;;;;;;;1.15;0.60;;;6.20;82.60;;;;;;5111285;28;20520;-73
2022/02/27 11:00:11;;;;;;;1.33;0.53;;;6.30;82.50;;;;;;5112513;28;20105;-73
2022/02/27 11:02:37;;;;;;;1.48;0.85;;;6.30;82.30;;;;;;5095765;28;20281;-73
2022/02/27 11:05:07;;;;;;;2.67;0.80;;;6.40;82.20;;;;;;5113514;28;20039;-73
2022/02/27 11:07:35;;;;;;;1.77;0.70;;;6.50;82.20;;;;;;5098031;28;20035;-73
2022/02/27 11:10:01;;;;;;;0.70;0.47;;;6.50;82.00;;;;;;5116618;28;20031;-73
2022/02/27 11:12:28;;;;;;;0.57;0.57;;;6.60;81.90;;;;;;5097841;28;20043;-73
2022/02/27 11:14:55;;;;;;;0.98;0.60;;;6.60;81.90;;;;;;5098142;28;20446;-73
2022/02/27 11:17:22;;;;;;;2.75;0.85;;;6.70;81.90;;;;;;5098534;28;20039;-73
2022/02/27 11:19:49;;;;;;;0.70;0.50;;;6.70;81.80;;;;;;5115998;28;20114;-73
2022/02/27 11:22:16;;;;;;;0.68;0.60;;;6.80;81.70;;;;;;5116418;28;20039;-73
2022/02/27 11:24:45;;;;;;;0.73;0.70;;;6.80;81.50;;;;;;5116208;28;20127;-75
2022/02/27 11:27:13;;;;;;;0.65;0.50;;;6.90;81.50;;;;;;5097781;28;20067;-73
2022/02/27 11:29:41;;;;;;;1.35;0.60;;;6.90;81.30;;;;;;5098161;28;20092;-73
2022/02/27 11:32:07;;;;;;;0.93;0.63;;;7.00;81.40;;;;;;5081548;28;20040;-73
2022/02/27 11:34:40;;;;;;;0.77;0.60;;;7.00;81.20;;;;;;5097507;28;20082;-73
2022/02/27 11:37:06;;;;;;;0.52;0.47;;;7.10;81.10;;;;;;5097634;28;20042;-73
2022/02/27 11:42:50;;;;;;;1.40;0.80;;;7.10;81.10;;;;;;5115381;28;20043;-73
2022/02/27 11:45:40;;;;;;;1.05;0.85;;;7.20;81.00;;;;;;5115562;28;20074;-73
2022/02/27 11:48:06;;;;;;;1.48;0.90;;;7.20;80.80;;;;;;5114774;28;20054;-74
2022/02/27 11:50:35;;;;;;;1.45;0.73;;;7.30;80.70;;;;;;5097482;28;20035;-74
2022/02/27 11:53:02;;;;;;;2.42;0.80;;;7.30;80.60;;;;;;5097167;28;20105;-73
2022/02/27 11:55:42;;;;;;;1.40;0.65;;;7.30;80.50;;;;;;5080435;28;20160;-74
2022/02/27 11:58:41;;;;;;;2.00;0.60;;;7.50;80.40;;;;;;5096752;28;20043;-73
2022/02/27 12:01:09;;;;;;;1.17;0.70;;;7.50;80.30;;;;;;5083017;28;20058;-73
2022/02/27 12:03:37;;;;;;;0.95;0.52;;;7.70;80.20;;;;;;5115425;28;20062;-73
2022/02/27 12:06:05;;;;;;;0.47;0.47;;;7.70;80.00;;;;;;5080185;28;20527;-73
2022/02/27 12:08:45;;;;;;;1.60;0.82;;;7.90;79.90;;;;;;5115411;28;20048;-73
2022/02/27 12:11:42;;;;;;;1.20;0.70;;;8.00;79.50;;;;;;5094966;28;20047;-73
2022/02/27 12:14:09;;;;;;;0.88;0.60;;;8.10;79.20;;;;;;5096700;28;20043;-73
2022/02/27 12:16:41;;;;;;;0.90;0.52;;;8.20;79.10;;;;;;5079650;28;20028;-74
2022/02/27 12:19:27;;;;;;;0.68;0.57;;;8.30;79.00;;;;;;5115221;28;20052;-73
2022/02/27 12:21:57;;;;;;;1.10;0.63;;;8.40;78.80;;;;;;5096033;28;20397;-73
2022/02/27 12:24:32;;;;;;;0.75;0.50;;;8.50;78.70;;;;;;5114892;28;20081;-74
2022/02/27 12:27:00;;;;;;;0.75;0.55;;;8.60;78.40;;;;;;5114907;28;20051;-73
2022/02/27 12:29:33;;;;;;;0.82;0.60;;;8.70;78.40;;;;;;5096693;28;20082;-74
2022/02/27 12:32:05;;;;;;;0.98;0.63;;;8.80;78.90;;;;;;5114813;28;20127;-73
2022/02/27 12:34:33;;;;;;;1.65;0.70;;;8.80;78.00;;;;;;5115192;28;20089;-74
2022/02/27 12:37:00;;;;;;;1.20;0.60;;;8.90;77.90;;;;;;5096734;28;20118;-74
2022/02/27 12:39:31;;;;;;;0.80;0.60;;;8.90;77.80;;;;;;5096932;28;20058;-73
2022/02/27 12:41:58;;;;;;;0.82;0.57;;;9.00;77.70;;;;;;5079601;28;20035;-74
2022/02/27 12:44:26;;;;;;;1.00;0.77;;;9.00;77.70;;;;;;5115074;28;20653;-73
2022/02/27 12:46:55;;;;;;;0.80;0.70;;;9.10;77.60;;;;;;5096287;28;20043;-75
2022/02/27 12:52:01;;;;;;;0.50;0.50;;;9.20;77.30;;;;;;5098242;28;20043;-74
2022/02/27 12:54:34;;;;;;;1.05;0.73;;;9.30;77.40;;;;;;5114846;28;20071;-73
2022/02/27 12:57:03;;;;;;;0.60;0.50;;;9.40;77.10;;;;;;5097352;28;20060;-74
2022/02/27 12:59:31;;;;;;;0.38;0.38;;;9.50;76.90;;;;;;5097134;28;20046;-74
2022/02/27 13:01:58;;;;;;;2.45;0.70;;;9.50;76.90;;;;;;5096783;28;20043;-75